Time;durP1;ratioP1;P1;durP2;ratioP2;P2;SDS_P1;SDS_P2;PMS_P1;PMS_P2;Temp;Humidity;BMP_temperature;BMP_pressure;BME280_temperature;BME280_humidity;BME280_pressure;Samples;Min_cycle;Max_cycle;Signal;HPM_P1;HPM_P2
2021/11/30 00:01:05;;;;;;;18.50;14.13;;;;;;;;;;772440;179;919869;-62
2021/11/30 00:03:29;;;;;;;17.33;12.00;;;;;;;;;;775982;180;920179;-62
2021/11/30 00:05:55;;;;;;;17.73;12.40;;;;;;;;;;774580;179;920979;-61
2021/11/30 00:08:22;;;;;;;21.13;13.90;;;;;;;;;;770130;180;922709;-62
2021/11/30 00:10:47;;;;;;;17.23;13.03;;;;;;;;;;768836;180;920383;-62
2021/11/30 00:13:14;;;;;;;18.83;12.77;;;;;;;;;;773541;180;920512;-61
2021/11/30 00:15:40;;;;;;;21.17;14.13;;;;;;;;;;768228;180;919091;-62
2021/11/30 00:18:05;;;;;;;22.63;14.30;;;;;;;;;;755031;183;925894;-62
2021/11/30 00:20:31;;;;;;;20.37;13.37;;;;;;;;;;761746;184;918546;-62
2021/11/30 00:22:57;;;;;;;17.97;12.60;;;;;;;;;;741370;187;919377;-60
2021/11/30 00:25:23;;;;;;;20.60;13.83;;;;;;;;;;745731;186;918874;-61
2021/11/30 00:27:49;;;;;;;19.20;14.27;;;;;;;;;;758109;184;919697;-62
2021/11/30 00:30:15;;;;;;;22.00;14.13;;;;;;;;;;741466;187;919645;-62
2021/11/30 00:32:40;;;;;;;20.93;13.13;;;;;;;;;;743683;185;1534724;-62
2021/11/30 00:35:06;;;;;;;18.50;12.73;;;;;;;;;;759171;184;920747;-62
2021/11/30 00:37:32;;;;;;;20.20;13.53;;;;;;;;;;769496;180;919092;-64
2021/11/30 00:39:58;;;;;;;16.50;12.90;;;;;;;;;;768541;181;914471;-62
2021/11/30 00:42:25;;;;;;;21.80;14.20;;;;;;;;;;765510;180;919593;-62
2021/11/30 00:44:51;;;;;;;22.90;14.67;;;;;;;;;;776576;180;920275;-62
2021/11/30 00:47:23;;;;;;;18.37;12.10;;;;;;;;;;768683;180;917465;-62
2021/11/30 00:49:44;;;;;;;23.50;15.97;;;;;;;;;;767692;180;922392;-62
2021/11/30 00:52:10;;;;;;;23.37;15.30;;;;;;;;;;774527;180;919594;-62
2021/11/30 00:54:36;;;;;;;21.83;15.50;;;;;;;;;;770536;180;924799;-62
2021/11/30 00:57:02;;;;;;;20.03;14.90;;;;;;;;;;769619;180;919763;-63
2021/11/30 00:59:28;;;;;;;20.70;14.40;;;;;;;;;;762374;180;918910;-61
2021/11/30 01:01:53;;;;;;;23.92;15.80;;;;;;;;;;776430;180;919809;-62
2021/11/30 01:04:19;;;;;;;20.73;14.80;;;;;;;;;;773623;180;919429;-62
2021/11/30 01:06:45;;;;;;;24.43;17.00;;;;;;;;;;774661;180;886633;-62
2021/11/30 01:09:11;;;;;;;21.83;14.80;;;;;;;;;;774229;181;919829;-62
2021/11/30 01:11:37;;;;;;;20.73;13.87;;;;;;;;;;768979;182;916046;-62
2021/11/30 01:14:03;;;;;;;20.40;14.57;;;;;;;;;;765154;180;918560;-63
2021/11/30 01:16:28;;;;;;;24.83;17.33;;;;;;;;;;773758;180;919321;-62
2021/11/30 01:18:54;;;;;;;25.03;15.33;;;;;;;;;;762463;180;921922;-62
2021/11/30 01:21:20;;;;;;;23.70;15.30;;;;;;;;;;772445;180;919287;-62
2021/11/30 01:23:46;;;;;;;21.47;15.43;;;;;;;;;;770274;180;919406;-61
2021/11/30 01:26:12;;;;;;;25.07;15.63;;;;;;;;;;772674;181;919518;-61
2021/11/30 01:28:38;;;;;;;23.63;14.40;;;;;;;;;;749401;183;951770;-62
2021/11/30 01:31:04;;;;;;;20.33;15.37;;;;;;;;;;754584;185;919235;-63
2021/11/30 01:33:29;;;;;;;18.53;12.80;;;;;;;;;;769050;180;714681;-63
2021/11/30 01:35:55;;;;;;;22.13;14.70;;;;;;;;;;764073;180;922871;-62
2021/11/30 01:38:21;;;;;;;18.70;13.33;;;;;;;;;;772425;180;917423;-62
2021/11/30 01:40:48;;;;;;;18.03;13.10;;;;;;;;;;775433;181;1022413;-63
2021/11/30 01:43:18;;;;;;;15.77;12.50;;;;;;;;;;765665;180;919529;-61
2021/11/30 01:45:46;;;;;;;16.50;11.87;;;;;;;;;;770942;180;920686;-61
2021/11/30 01:50:49;;;;;;;17.27;13.43;;;;;;;;;;758947;182;920780;-61
2021/11/30 01:53:15;;;;;;;17.57;12.90;;;;;;;;;;770600;182;927299;-61
2021/11/30 01:55:43;;;;;;;16.20;11.57;;;;;;;;;;764769;180;1023928;-61
2021/11/30 01:58:06;;;;;;;16.63;12.10;;;;;;;;;;769395;180;921602;-62
2021/11/30 02:00:35;;;;;;;15.93;12.40;;;;;;;;;;775556;180;921022;-62
2021/11/30 02:02:58;;;;;;;14.10;10.50;;;;;;;;;;771078;180;918855;-63
2021/11/30 02:05:24;;;;;;;18.00;12.60;;;;;;;;;;770329;181;919182;-62
2021/11/30 02:07:50;;;;;;;13.97;11.60;;;;;;;;;;770039;182;916889;-61
2021/11/30 02:10:17;;;;;;;17.87;11.87;;;;;;;;;;763425;182;913449;-61
2021/11/30 02:12:42;;;;;;;16.43;11.90;;;;;;;;;;770186;180;919462;-62
2021/11/30 02:15:07;;;;;;;18.50;10.60;;;;;;;;;;769213;179;921602;-61
2021/11/30 02:17:33;;;;;;;16.27;11.03;;;;;;;;;;769980;180;913794;-62
2021/11/30 02:20:00;;;;;;;14.50;10.13;;;;;;;;;;752435;184;919438;-62
2021/11/30 02:22:25;;;;;;;16.70;10.33;;;;;;;;;;754306;182;922127;-62
2021/11/30 02:24:51;;;;;;;14.10;9.57;;;;;;;;;;775637;181;919140;-62
2021/11/30 02:27:17;;;;;;;13.17;11.43;;;;;;;;;;775143;179;919275;-62
2021/11/30 02:29:42;;;;;;;16.03;11.40;;;;;;;;;;765555;181;919367;-63
2021/11/30 02:32:08;;;;;;;14.07;10.67;;;;;;;;;;771003;180;919368;-62
2021/11/30 02:34:34;;;;;;;13.20;11.03;;;;;;;;;;770414;180;919735;-62
2021/11/30 02:37:06;;;;;;;14.30;10.07;;;;;;;;;;773173;180;918816;-62
2021/11/30 02:39:30;;;;;;;15.57;10.52;;;;;;;;;;767556;180;919254;-62
2021/11/30 02:41:55;;;;;;;14.87;10.57;;;;;;;;;;776640;180;920317;-62
2021/11/30 02:44:21;;;;;;;14.80;11.03;;;;;;;;;;769948;180;919535;-62
2021/11/30 02:46:49;;;;;;;17.17;11.80;;;;;;;;;;769523;180;923730;-63
2021/11/30 02:49:15;;;;;;;15.40;11.73;;;;;;;;;;777257;180;920585;-62
2021/11/30 02:51:42;;;;;;;17.20;12.02;;;;;;;;;;771867;179;920102;-63
2021/11/30 02:54:07;;;;;;;18.60;12.83;;;;;;;;;;769092;180;919927;-63
2021/11/30 02:56:32;;;;;;;18.20;12.97;;;;;;;;;;778456;180;853220;-63
2021/11/30 02:58:58;;;;;;;18.17;13.40;;;;;;;;;;765109;182;920005;-62
2021/11/30 03:01:24;;;;;;;17.70;11.70;;;;;;;;;;772831;180;919986;-63
2021/11/30 03:03:50;;;;;;;16.50;11.03;;;;;;;;;;772416;179;918566;-61
2021/11/30 03:06:16;;;;;;;22.13;14.33;;;;;;;;;;774343;181;1022641;-63
2021/11/30 03:08:42;;;;;;;18.00;13.33;;;;;;;;;;766381;180;916791;-63
2021/11/30 03:11:07;;;;;;;21.77;15.32;;;;;;;;;;767596;180;1019751;-63
2021/11/30 03:13:33;;;;;;;20.43;14.60;;;;;;;;;;770944;181;920241;-62
2021/11/30 03:15:59;;;;;;;23.33;15.17;;;;;;;;;;770999;180;926144;-63
2021/11/30 03:18:25;;;;;;;19.13;13.23;;;;;;;;;;770278;179;926590;-63
2021/11/30 03:20:51;;;;;;;18.70;13.20;;;;;;;;;;768247;181;914527;-62
2021/11/30 03:23:17;;;;;;;20.70;14.05;;;;;;;;;;767100;180;914334;-63
2021/11/30 03:25:43;;;;;;;19.77;13.83;;;;;;;;;;766578;180;1018738;-61
2021/11/30 03:28:08;;;;;;;17.93;13.23;;;;;;;;;;775411;178;973081;-60
2021/11/30 03:30:40;;;;;;;21.53;13.30;;;;;;;;;;772990;180;913061;-62
2021/11/30 03:35:32;;;;;;;19.50;13.60;;;;;;;;;;764661;180;920707;-61
2021/11/30 03:37:58;;;;;;;20.97;14.40;;;;;;;;;;773469;180;917217;-62
2021/11/30 03:40:23;;;;;;;18.50;13.80;;;;;;;;;;764437;182;918664;-63
2021/11/30 03:42:49;;;;;;;19.00;13.50;;;;;;;;;;772851;179;920223;-62
2021/11/30 03:45:16;;;;;;;18.05;13.62;;;;;;;;;;760452;180;920380;-60
2021/11/30 03:47:42;;;;;;;22.63;14.20;;;;;;;;;;769108;182;921226;-62
2021/11/30 03:50:08;;;;;;;21.97;14.90;;;;;;;;;;763594;183;936664;-63
2021/11/30 03:52:33;;;;;;;18.93;13.67;;;;;;;;;;763439;180;919192;-62
2021/11/30 03:54:59;;;;;;;18.40;13.60;;;;;;;;;;774298;179;621291;-62
2021/11/30 03:57:25;;;;;;;23.73;14.80;;;;;;;;;;766617;181;917000;-62
2021/11/30 03:59:51;;;;;;;20.35;14.73;;;;;;;;;;772158;180;1029495;-62
2021/11/30 04:02:17;;;;;;;21.93;14.30;;;;;;;;;;775016;180;916763;-62
2021/11/30 04:04:45;;;;;;;18.20;14.00;;;;;;;;;;769531;180;1023268;-63
2021/11/30 04:07:09;;;;;;;18.48;12.98;;;;;;;;;;765581;180;920127;-61
2021/11/30 04:09:34;;;;;;;20.63;12.67;;;;;;;;;;774425;181;917106;-63
2021/11/30 04:12:01;;;;;;;16.10;11.17;;;;;;;;;;771647;180;938621;-62
2021/11/30 04:14:26;;;;;;;18.40;13.20;;;;;;;;;;770872;180;919587;-62
2021/11/30 04:16:52;;;;;;;18.10;12.33;;;;;;;;;;769704;180;1022958;-62
2021/11/30 04:19:18;;;;;;;19.13;13.00;;;;;;;;;;773563;180;925359;-61
2021/11/30 04:21:44;;;;;;;17.73;12.63;;;;;;;;;;771823;180;919404;-62
2021/11/30 04:24:09;;;;;;;17.70;12.30;;;;;;;;;;765750;180;921301;-62
2021/11/30 04:26:35;;;;;;;21.08;13.25;;;;;;;;;;773232;180;922535;-63
2021/11/30 04:29:01;;;;;;;22.07;12.63;;;;;;;;;;762538;180;920354;-63
2021/11/30 04:31:29;;;;;;;17.73;11.93;;;;;;;;;;771906;180;919848;-63
2021/11/30 04:33:53;;;;;;;19.42;12.48;;;;;;;;;;773834;180;919408;-62
2021/11/30 04:36:19;;;;;;;21.23;14.80;;;;;;;;;;759783;181;921934;-63
2021/11/30 04:38:45;;;;;;;21.10;13.63;;;;;;;;;;772181;179;934726;-62
2021/11/30 04:41:10;;;;;;;18.30;12.83;;;;;;;;;;771035;180;914917;-62
2021/11/30 04:43:37;;;;;;;17.03;11.20;;;;;;;;;;771958;180;916491;-63
2021/11/30 04:46:08;;;;;;;17.47;12.27;;;;;;;;;;769124;179;812938;-62
2021/11/30 04:48:29;;;;;;;19.17;13.10;;;;;;;;;;768187;181;919378;-63
2021/11/30 04:50:56;;;;;;;20.53;13.57;;;;;;;;;;779314;180;614262;-62
2021/11/30 04:53:21;;;;;;;21.13;14.30;;;;;;;;;;769280;180;918550;-63
2021/11/30 04:55:46;;;;;;;20.50;14.00;;;;;;;;;;766033;179;922715;-62
2021/11/30 04:58:11;;;;;;;25.53;16.40;;;;;;;;;;768852;180;920348;-63
2021/11/30 05:00:37;;;;;;;24.90;16.60;;;;;;;;;;767379;181;1021509;-63
2021/11/30 05:03:04;;;;;;;22.37;14.17;;;;;;;;;;770425;180;919669;-62
2021/11/30 05:05:30;;;;;;;20.20;13.40;;;;;;;;;;767604;180;919807;-62
2021/11/30 05:07:56;;;;;;;20.73;12.47;;;;;;;;;;767609;183;917933;-62
2021/11/30 05:10:21;;;;;;;20.80;13.33;;;;;;;;;;770385;179;919227;-63
2021/11/30 05:12:47;;;;;;;18.00;12.57;;;;;;;;;;768308;180;918761;-62
2021/11/30 05:15:13;;;;;;;19.03;13.50;;;;;;;;;;774642;180;920187;-63
2021/11/30 05:17:40;;;;;;;15.90;12.37;;;;;;;;;;768689;180;1021951;-63
2021/11/30 05:20:05;;;;;;;22.43;13.93;;;;;;;;;;774114;180;616411;-63
2021/11/30 05:22:31;;;;;;;20.20;12.83;;;;;;;;;;775729;180;645031;-63
2021/11/30 05:24:57;;;;;;;21.27;14.00;;;;;;;;;;769776;180;615848;-62
2021/11/30 05:27:23;;;;;;;20.10;13.00;;;;;;;;;;763679;182;920497;-62
2021/11/30 05:29:49;;;;;;;22.98;13.90;;;;;;;;;;765843;180;919933;-60
2021/11/30 05:32:15;;;;;;;20.17;12.40;;;;;;;;;;769033;180;917691;-62
2021/11/30 05:34:41;;;;;;;18.23;12.90;;;;;;;;;;763248;181;919402;-63
2021/11/30 05:37:07;;;;;;;22.90;13.57;;;;;;;;;;770332;180;1046607;-62
2021/11/30 05:39:32;;;;;;;20.53;13.57;;;;;;;;;;775352;180;908990;-62
2021/11/30 05:41:58;;;;;;;18.17;12.02;;;;;;;;;;766909;180;917824;-62
2021/11/30 05:44:24;;;;;;;18.93;12.60;;;;;;;;;;768058;180;924487;-61
2021/11/30 05:46:50;;;;;;;19.90;13.10;;;;;;;;;;775718;180;919929;-62
2021/11/30 05:49:16;;;;;;;19.95;12.60;;;;;;;;;;774799;179;887167;-62
2021/11/30 05:51:42;;;;;;;20.47;14.20;;;;;;;;;;768445;180;920131;-62
2021/11/30 05:54:07;;;;;;;20.13;12.37;;;;;;;;;;777131;179;919656;-63
2021/11/30 05:56:33;;;;;;;17.83;13.00;;;;;;;;;;774911;180;645066;-62
2021/11/30 05:58:59;;;;;;;19.50;11.80;;;;;;;;;;777934;180;642505;-61
2021/11/30 06:01:28;;;;;;;18.23;12.47;;;;;;;;;;771475;180;915046;-61
2021/11/30 06:03:58;;;;;;;19.30;13.50;;;;;;;;;;777782;180;916358;-62
2021/11/30 06:06:25;;;;;;;20.80;13.40;;;;;;;;;;773479;179;919282;-62
2021/11/30 06:08:51;;;;;;;19.93;12.67;;;;;;;;;;770056;179;920222;-62
2021/11/30 06:11:17;;;;;;;16.27;11.53;;;;;;;;;;766093;180;919371;-63
2021/11/30 06:13:43;;;;;;;19.23;11.93;;;;;;;;;;767842;183;918669;-63
2021/11/30 06:16:09;;;;;;;17.73;12.57;;;;;;;;;;764147;182;918322;-61
2021/11/30 06:18:34;;;;;;;18.73;14.67;;;;;;;;;;766663;181;920834;-59
2021/11/30 06:21:00;;;;;;;19.33;13.40;;;;;;;;;;773643;180;915796;-62
2021/11/30 06:23:26;;;;;;;20.70;13.63;;;;;;;;;;769609;180;920111;-61
2021/11/30 06:25:52;;;;;;;17.60;11.90;;;;;;;;;;770912;180;918506;-62
2021/11/30 06:28:18;;;;;;;21.80;12.60;;;;;;;;;;776192;180;919089;-62
2021/11/30 06:30:44;;;;;;;20.50;13.03;;;;;;;;;;771401;180;919701;-59
2021/11/30 06:33:10;;;;;;;19.37;12.00;;;;;;;;;;770097;180;920510;-62
2021/11/30 06:35:37;;;;;;;19.73;12.93;;;;;;;;;;766849;181;919700;-62
2021/11/30 06:38:02;;;;;;;17.87;11.97;;;;;;;;;;767540;181;920798;-62
2021/11/30 06:40:28;;;;;;;21.83;14.10;;;;;;;;;;770556;180;920508;-61
2021/11/30 06:42:54;;;;;;;15.30;12.17;;;;;;;;;;770045;180;920265;-62
2021/11/30 06:45:19;;;;;;;21.27;12.80;;;;;;;;;;775007;179;921538;-63
2021/11/30 06:47:45;;;;;;;23.10;13.63;;;;;;;;;;769961;180;914986;-63
2021/11/30 06:50:11;;;;;;;20.50;12.93;;;;;;;;;;771751;180;919767;-62
2021/11/30 06:52:38;;;;;;;21.70;13.40;;;;;;;;;;775580;180;920422;-61
2021/11/30 06:55:03;;;;;;;18.17;12.37;;;;;;;;;;767141;180;920039;-62
2021/11/30 06:57:29;;;;;;;17.17;11.50;;;;;;;;;;769244;180;919429;-61
2021/11/30 06:59:59;;;;;;;17.40;12.73;;;;;;;;;;769564;180;915468;-62
2021/11/30 07:02:21;;;;;;;22.97;13.17;;;;;;;;;;768251;178;919619;-61
2021/11/30 07:04:50;;;;;;;16.53;11.57;;;;;;;;;;769006;181;918198;-62
2021/11/30 07:07:24;;;;;;;17.53;11.80;;;;;;;;;;769667;180;919399;-62
2021/11/30 07:12:54;;;;;;;18.50;13.03;;;;;;;;;;769912;181;918410;-62
2021/11/30 07:15:12;;;;;;;17.47;11.00;;;;;;;;;;774349;179;919645;-62
2021/11/30 07:17:39;;;;;;;22.70;13.50;;;;;;;;;;766830;180;919370;-62
2021/11/30 07:20:05;;;;;;;20.70;10.50;;;;;;;;;;767130;180;918926;-62
2021/11/30 07:22:31;;;;;;;17.90;10.50;;;;;;;;;;768503;180;920324;-61
2021/11/30 07:24:56;;;;;;;15.43;9.80;;;;;;;;;;760465;183;919944;-63
2021/11/30 07:27:22;;;;;;;18.57;10.50;;;;;;;;;;766594;180;919142;-63
2021/11/30 07:29:48;;;;;;;17.43;10.90;;;;;;;;;;768320;180;1021130;-62
2021/11/30 07:32:14;;;;;;;16.77;11.45;;;;;;;;;;775956;180;920051;-62
2021/11/30 07:34:40;;;;;;;16.57;10.90;;;;;;;;;;771808;180;919331;-62
2021/11/30 07:37:06;;;;;;;19.33;11.95;;;;;;;;;;769474;180;919119;-62
2021/11/30 07:39:32;;;;;;;19.40;10.17;;;;;;;;;;773767;180;929335;-62
2021/11/30 07:41:57;;;;;;;19.13;11.87;;;;;;;;;;768037;180;925910;-63
2021/11/30 07:44:23;;;;;;;18.30;11.90;;;;;;;;;;767099;179;919635;-61
2021/11/30 07:46:49;;;;;;;17.97;11.30;;;;;;;;;;773146;180;1021447;-63
2021/11/30 07:49:15;;;;;;;19.33;12.00;;;;;;;;;;768181;181;921012;-62
2021/11/30 07:51:41;;;;;;;15.93;11.30;;;;;;;;;;763646;181;918490;-63
2021/11/30 07:54:07;;;;;;;21.33;15.13;;;;;;;;;;767571;181;923100;-64
2021/11/30 07:56:33;;;;;;;17.90;12.10;;;;;;;;;;776517;180;918938;-64
2021/11/30 07:58:58;;;;;;;21.30;11.37;;;;;;;;;;770291;180;938414;-63
2021/11/30 08:01:24;;;;;;;19.80;11.43;;;;;;;;;;768302;180;922294;-65
2021/11/30 08:03:50;;;;;;;20.70;12.47;;;;;;;;;;773142;180;918708;-64
2021/11/30 08:06:16;;;;;;;19.70;12.20;;;;;;;;;;769555;180;919804;-64
2021/11/30 08:08:42;;;;;;;21.90;11.35;;;;;;;;;;761657;180;1123721;-64
2021/11/30 08:11:08;;;;;;;21.23;11.32;;;;;;;;;;768559;182;919911;-63
2021/11/30 08:13:33;;;;;;;21.70;12.23;;;;;;;;;;768802;180;921239;-63
2021/11/30 08:15:59;;;;;;;18.23;13.10;;;;;;;;;;771339;180;921222;-63
2021/11/30 08:18:26;;;;;;;22.03;12.10;;;;;;;;;;766859;181;919340;-62
2021/11/30 08:20:51;;;;;;;15.87;8.30;;;;;;;;;;768832;180;919404;-62
2021/11/30 08:23:17;;;;;;;20.47;10.77;;;;;;;;;;762882;181;930886;-64
2021/11/30 08:25:43;;;;;;;15.97;10.60;;;;;;;;;;766262;180;919995;-62
2021/11/30 08:28:08;;;;;;;19.33;11.97;;;;;;;;;;777875;180;918752;-62
2021/11/30 08:30:35;;;;;;;14.13;8.30;;;;;;;;;;767779;180;917046;-62
2021/11/30 08:33:01;;;;;;;15.75;9.68;;;;;;;;;;764349;181;916340;-61
2021/11/30 08:35:27;;;;;;;20.17;9.80;;;;;;;;;;774495;180;916147;-63
2021/11/30 08:37:52;;;;;;;12.17;7.50;;;;;;;;;;771980;180;919653;-63
2021/11/30 08:40:19;;;;;;;11.97;7.03;;;;;;;;;;772731;180;918571;-62
2021/11/30 08:42:44;;;;;;;23.20;9.63;;;;;;;;;;764481;180;921115;-63
2021/11/30 08:45:10;;;;;;;20.30;10.53;;;;;;;;;;770028;180;924635;-63
2021/11/30 08:47:36;;;;;;;20.47;11.60;;;;;;;;;;754965;181;921185;-64
2021/11/30 08:50:02;;;;;;;18.47;11.30;;;;;;;;;;763461;181;918842;-63
2021/11/30 08:52:28;;;;;;;15.40;9.25;;;;;;;;;;775415;180;909297;-64
2021/11/30 08:54:54;;;;;;;14.40;8.80;;;;;;;;;;769366;180;923600;-64
2021/11/30 08:57:20;;;;;;;20.00;11.50;;;;;;;;;;768986;179;918993;-63
2021/11/30 08:59:45;;;;;;;17.83;12.27;;;;;;;;;;772537;180;919167;-64
2021/11/30 09:02:11;;;;;;;20.63;11.47;;;;;;;;;;767197;180;920558;-64
2021/11/30 09:04:37;;;;;;;14.50;9.10;;;;;;;;;;769365;180;919656;-63
2021/11/30 09:07:03;;;;;;;18.60;11.67;;;;;;;;;;774923;180;920924;-63
2021/11/30 09:09:29;;;;;;;21.77;10.90;;;;;;;;;;770160;180;917941;-64
2021/11/30 09:11:56;;;;;;;16.40;10.77;;;;;;;;;;768800;180;919632;-64
2021/11/30 09:14:22;;;;;;;17.97;11.23;;;;;;;;;;770085;180;919822;-62
2021/11/30 09:16:46;;;;;;;18.63;10.50;;;;;;;;;;769159;180;918666;-64
2021/11/30 09:19:12;;;;;;;22.93;14.10;;;;;;;;;;770880;180;919645;-64
2021/11/30 09:21:39;;;;;;;12.97;8.23;;;;;;;;;;768805;180;918659;-64
2021/11/30 09:24:04;;;;;;;21.17;11.47;;;;;;;;;;777044;180;925163;-64
2021/11/30 09:26:30;;;;;;;20.37;11.80;;;;;;;;;;772861;180;921051;-63
2021/11/30 09:28:56;;;;;;;19.43;12.17;;;;;;;;;;766899;179;919544;-64
2021/11/30 09:31:22;;;;;;;19.97;11.57;;;;;;;;;;770062;180;919333;-63
2021/11/30 09:33:48;;;;;;;17.60;10.43;;;;;;;;;;771863;180;1017270;-63
2021/11/30 09:36:15;;;;;;;16.77;10.67;;;;;;;;;;769836;180;914773;-63
2021/11/30 09:38:39;;;;;;;11.75;8.15;;;;;;;;;;770892;180;915035;-62
2021/11/30 09:41:05;;;;;;;18.53;12.60;;;;;;;;;;773062;180;914218;-64
2021/11/30 09:43:32;;;;;;;15.97;10.10;;;;;;;;;;767717;180;915686;-62
2021/11/30 09:45:57;;;;;;;16.40;8.20;;;;;;;;;;769815;180;914670;-64
2021/11/30 09:48:23;;;;;;;15.43;10.07;;;;;;;;;;776456;180;910767;-63
2021/11/30 09:50:48;;;;;;;18.97;11.47;;;;;;;;;;772977;180;917256;-64
2021/11/30 09:53:14;;;;;;;16.48;9.20;;;;;;;;;;771498;180;916266;-64
2021/11/30 09:55:41;;;;;;;25.30;9.20;;;;;;;;;;775359;180;916855;-65
2021/11/30 09:58:06;;;;;;;17.50;9.63;;;;;;;;;;768675;180;916224;-65
2021/11/30 10:00:34;;;;;;;16.48;9.98;;;;;;;;;;769486;180;1025084;-64
2021/11/30 10:02:59;;;;;;;18.63;10.80;;;;;;;;;;771322;180;918038;-64
2021/11/30 10:05:24;;;;;;;18.50;9.93;;;;;;;;;;768948;183;915491;-65
2021/11/30 10:07:51;;;;;;;18.90;11.63;;;;;;;;;;769357;180;915359;-65
2021/11/30 10:10:15;;;;;;;19.70;12.10;;;;;;;;;;768803;180;916523;-65
2021/11/30 10:12:41;;;;;;;19.90;10.93;;;;;;;;;;777242;180;913917;-65
2021/11/30 10:15:08;;;;;;;23.77;13.50;;;;;;;;;;767058;180;916330;-63
2021/11/30 10:17:35;;;;;;;24.20;14.07;;;;;;;;;;771118;180;916134;-66
2021/11/30 10:19:59;;;;;;;25.00;14.17;;;;;;;;;;777830;180;917315;-64
2021/11/30 10:22:31;;;;;;;18.37;11.60;;;;;;;;;;759533;180;1018507;-65
2021/11/30 10:25:02;;;;;;;21.07;11.40;;;;;;;;;;764790;180;919989;-64
2021/11/30 10:27:29;;;;;;;18.23;11.97;;;;;;;;;;773324;180;916785;-65
2021/11/30 10:29:54;;;;;;;19.13;12.30;;;;;;;;;;773922;180;916652;-63
2021/11/30 10:32:20;;;;;;;21.00;12.93;;;;;;;;;;768723;181;940898;-65
2021/11/30 10:34:46;;;;;;;15.80;11.17;;;;;;;;;;766563;179;927538;-65
2021/11/30 10:37:12;;;;;;;15.95;11.50;;;;;;;;;;770377;180;1017511;-65
2021/11/30 10:39:38;;;;;;;14.57;9.80;;;;;;;;;;769125;180;916192;-64
2021/11/30 10:42:09;;;;;;;19.17;11.17;;;;;;;;;;769294;179;916269;-65
2021/11/30 10:44:35;;;;;;;16.70;10.27;;;;;;;;;;768081;180;915968;-64
2021/11/30 10:47:06;;;;;;;14.00;7.70;;;;;;;;;;776551;179;922458;-63
2021/11/30 10:49:31;;;;;;;11.03;7.47;;;;;;;;;;771672;180;916248;-64
2021/11/30 10:51:57;;;;;;;14.10;8.77;;;;;;;;;;770284;180;916086;-64
2021/11/30 10:54:23;;;;;;;13.80;7.90;;;;;;;;;;771370;180;915851;-64
2021/11/30 10:57:01;;;;;;;16.90;9.73;;;;;;;;;;774624;180;916377;-64
2021/11/30 10:59:27;;;;;;;15.30;9.13;;;;;;;;;;771157;179;926117;-64
2021/11/30 11:01:53;;;;;;;11.60;5.90;;;;;;;;;;766110;180;917156;-65
2021/11/30 11:04:18;;;;;;;11.90;7.17;;;;;;;;;;768540;180;916447;-64
2021/11/30 11:06:44;;;;;;;12.43;6.40;;;;;;;;;;769354;181;903201;-63
2021/11/30 11:09:10;;;;;;;11.20;7.40;;;;;;;;;;766897;180;916765;-64
2021/11/30 11:11:36;;;;;;;10.40;6.73;;;;;;;;;;768972;180;915149;-64
2021/11/30 11:14:03;;;;;;;15.17;8.43;;;;;;;;;;775973;180;916067;-63
2021/11/30 11:16:28;;;;;;;8.13;4.93;;;;;;;;;;770706;180;916773;-64
2021/11/30 11:18:54;;;;;;;7.90;5.63;;;;;;;;;;769635;180;916513;-62
2021/11/30 11:21:20;;;;;;;10.23;5.87;;;;;;;;;;769581;182;916574;-64
2021/11/30 11:24:01;;;;;;;9.93;5.30;;;;;;;;;;770297;180;911294;-64
2021/11/30 11:26:28;;;;;;;9.98;5.35;;;;;;;;;;769677;180;920039;-63
2021/11/30 11:28:53;;;;;;;8.17;5.40;;;;;;;;;;755765;184;912904;-64
2021/11/30 11:31:18;;;;;;;7.73;3.40;;;;;;;;;;757885;180;911996;-63
2021/11/30 11:33:44;;;;;;;9.60;4.60;;;;;;;;;;769500;181;912682;-65
2021/11/30 11:36:10;;;;;;;4.30;2.20;;;;;;;;;;758601;181;939278;-64
2021/11/30 11:38:36;;;;;;;6.70;4.03;;;;;;;;;;769844;181;919812;-65
2021/11/30 11:41:02;;;;;;;6.87;3.90;;;;;;;;;;767535;180;914654;-65
2021/11/30 11:43:28;;;;;;;2.40;2.13;;;;;;;;;;768139;180;947400;-65
2021/11/30 11:45:53;;;;;;;6.33;3.40;;;;;;;;;;770230;180;920333;-63
2021/11/30 11:48:19;;;;;;;5.13;3.10;;;;;;;;;;776266;178;951004;-65
2021/11/30 11:50:48;;;;;;;2.63;1.67;;;;;;;;;;773282;180;919104;-66
2021/11/30 11:53:20;;;;;;;3.27;2.17;;;;;;;;;;766464;180;923345;-64
2021/11/30 11:55:46;;;;;;;4.60;1.97;;;;;;;;;;772300;180;915944;-64
2021/11/30 11:58:12;;;;;;;5.43;2.80;;;;;;;;;;772517;180;916603;-65
2021/11/30 12:00:37;;;;;;;2.73;1.60;;;;;;;;;;768545;180;915632;-65
2021/11/30 12:03:03;;;;;;;11.13;2.23;;;;;;;;;;768180;181;916152;-65
2021/11/30 12:05:35;;;;;;;2.13;1.60;;;;;;;;;;777079;180;915562;-65
2021/11/30 12:08:02;;;;;;;2.77;1.97;;;;;;;;;;768600;182;916162;-65
2021/11/30 12:10:26;;;;;;;3.47;2.20;;;;;;;;;;772155;180;916085;-66
2021/11/30 12:12:55;;;;;;;3.20;2.00;;;;;;;;;;772632;179;920087;-65
2021/11/30 12:15:23;;;;;;;3.40;2.50;;;;;;;;;;758772;182;1021792;-65
2021/11/30 12:17:47;;;;;;;5.83;2.87;;;;;;;;;;763143;182;919504;-65
2021/11/30 12:20:13;;;;;;;4.37;3.10;;;;;;;;;;768712;181;919362;-65
2021/11/30 12:22:42;;;;;;;3.45;2.17;;;;;;;;;;773640;180;919635;-65
2021/11/30 12:25:10;;;;;;;2.37;1.90;;;;;;;;;;775934;179;919454;-65
2021/11/30 12:27:37;;;;;;;3.47;2.85;;;;;;;;;;759911;180;923673;-65
2021/11/30 12:30:03;;;;;;;3.77;2.60;;;;;;;;;;773064;177;919939;-65
2021/11/30 12:32:29;;;;;;;2.70;1.98;;;;;;;;;;771107;180;919616;-65
2021/11/30 12:34:56;;;;;;;7.20;2.13;;;;;;;;;;765083;180;919477;-64
2021/11/30 12:37:23;;;;;;;7.27;2.70;;;;;;;;;;766557;180;919962;-65
2021/11/30 12:39:55;;;;;;;7.20;3.33;;;;;;;;;;763490;181;1021566;-64
2021/11/30 12:42:21;;;;;;;4.33;3.00;;;;;;;;;;771540;180;919345;-64
2021/11/30 12:44:46;;;;;;;3.30;2.27;;;;;;;;;;757174;182;919528;-65
2021/11/30 12:47:16;;;;;;;3.00;2.20;;;;;;;;;;764515;182;919129;-66
2021/11/30 12:49:42;;;;;;;4.00;2.87;;;;;;;;;;770676;180;921329;-65
2021/11/30 12:52:08;;;;;;;2.53;1.47;;;;;;;;;;769259;180;919021;-65
2021/11/30 12:54:35;;;;;;;3.60;2.13;;;;;;;;;;771802;180;915547;-65
2021/11/30 12:57:00;;;;;;;3.60;2.23;;;;;;;;;;764634;182;916009;-66
2021/11/30 12:59:31;;;;;;;2.17;1.23;;;;;;;;;;771029;179;915717;-66
2021/11/30 13:02:14;;;;;;;2.47;1.40;;;;;;;;;;771551;180;914425;-65
2021/11/30 13:04:40;;;;;;;2.60;1.35;;;;;;;;;;770866;180;919977;-66
2021/11/30 13:07:06;;;;;;;3.10;1.63;;;;;;;;;;771868;180;917760;-65
2021/11/30 13:09:36;;;;;;;2.60;1.77;;;;;;;;;;779093;180;918394;-66
2021/11/30 13:12:02;;;;;;;3.70;1.87;;;;;;;;;;777978;179;919142;-66
2021/11/30 13:14:27;;;;;;;3.00;1.63;;;;;;;;;;762615;181;913647;-66
2021/11/30 13:16:53;;;;;;;4.50;2.47;;;;;;;;;;769241;180;921665;-67
2021/11/30 13:19:19;;;;;;;3.70;1.77;;;;;;;;;;775174;180;912536;-67
2021/11/30 13:21:45;;;;;;;2.03;1.10;;;;;;;;;;768718;180;912224;-65
2021/11/30 13:24:11;;;;;;;2.92;1.77;;;;;;;;;;770134;180;1013375;-67
2021/11/30 13:26:37;;;;;;;4.07;2.03;;;;;;;;;;774228;179;999342;-67
2021/11/30 13:29:03;;;;;;;2.33;1.53;;;;;;;;;;768457;180;919319;-66
2021/11/30 13:31:28;;;;;;;4.43;2.70;;;;;;;;;;772171;180;919213;-68
2021/11/30 13:33:55;;;;;;;3.00;2.13;;;;;;;;;;764661;182;919214;-67
2021/11/30 13:36:20;;;;;;;9.10;2.20;;;;;;;;;;769780;183;918774;-67
2021/11/30 13:38:47;;;;;;;3.77;2.70;;;;;;;;;;766795;180;919684;-70
2021/11/30 13:41:13;;;;;;;3.50;2.57;;;;;;;;;;753003;183;918991;-67
2021/11/30 13:43:40;;;;;;;3.67;2.30;;;;;;;;;;762956;181;918671;-67
2021/11/30 13:46:06;;;;;;;3.93;1.70;;;;;;;;;;772779;180;919450;-67
2021/11/30 13:48:31;;;;;;;3.37;2.40;;;;;;;;;;769025;180;1007726;-67
2021/11/30 13:50:57;;;;;;;2.63;1.63;;;;;;;;;;769763;180;919768;-67
2021/11/30 13:53:23;;;;;;;2.60;1.27;;;;;;;;;;764736;180;919118;-67
2021/11/30 13:55:54;;;;;;;2.40;1.73;;;;;;;;;;765451;180;918889;-67
2021/11/30 13:58:19;;;;;;;2.60;1.90;;;;;;;;;;766265;180;919483;-65
2021/11/30 14:00:48;;;;;;;4.87;2.77;;;;;;;;;;770104;179;919297;-67
2021/11/30 14:03:07;;;;;;;3.77;1.87;;;;;;;;;;752937;181;919514;-68
2021/11/30 14:05:34;;;;;;;6.53;2.30;;;;;;;;;;767807;181;1015425;-67
2021/11/30 14:07:58;;;;;;;2.30;1.65;;;;;;;;;;773345;180;920796;-68
2021/11/30 14:10:25;;;;;;;6.73;2.63;;;;;;;;;;769432;179;1020361;-67